createdAt,value
2022-09-25T00:02:08.022Z,97070.14
2022-09-25T00:04:41.040Z,97066.78
2022-09-25T00:07:13.874Z,97065.06
2022-09-25T00:09:47.060Z,97075.56
2022-09-25T00:12:20.049Z,97073.97
2022-09-25T00:14:53.543Z,97075.02
2022-09-25T00:17:26.901Z,97081.23
2022-09-25T00:19:59.753Z,97076.19
2022-09-25T00:22:34.183Z,97083.03
2022-09-25T00:25:08.217Z,97090.00
2022-09-25T00:27:42.420Z,97084.80
2022-09-25T00:30:16.504Z,97095.13
2022-09-25T00:32:49.619Z,97094.32
2022-09-25T00:35:22.510Z,97095.28
2022-09-25T00:37:55.497Z,97097.13
2022-09-25T00:40:28.448Z,97102.53
2022-09-25T00:43:01.304Z,97099.09
2022-09-25T00:45:34.245Z,97097.41
2022-09-25T00:48:10.111Z,97102.60
2022-09-25T00:50:46.744Z,97104.36
2022-09-25T00:53:22.672Z,97105.28
2022-09-25T00:55:57.437Z,97109.56
2022-09-25T00:58:33.962Z,97110.41
2022-09-25T01:01:08.693Z,97107.84
2022-09-25T01:03:45.144Z,97108.73
2022-09-25T01:06:20.072Z,97116.53
2022-09-25T01:08:53.523Z,97118.40
2022-09-25T01:11:26.447Z,97113.30
2022-09-25T01:14:02.350Z,97115.94
2022-09-25T01:16:39.059Z,97119.42
2022-09-25T01:19:19.413Z,97124.70
2022-09-25T01:21:55.284Z,97126.49
2022-09-25T01:24:48.296Z,97130.00
2022-09-25T01:30:33.952Z,97134.16
2022-09-25T01:33:10.171Z,97132.67
2022-09-25T01:35:47.535Z,97133.55
2022-09-25T01:38:28.095Z,97140.45
2022-09-25T01:41:05.050Z,97137.81
2022-09-25T01:43:41.409Z,97135.37
2022-09-25T01:46:19.747Z,97149.42
2022-09-25T01:48:55.887Z,97152.16
2022-09-25T01:51:32.016Z,97152.25
2022-09-25T01:54:08.962Z,97154.07
2022-09-25T01:56:45.311Z,97158.45
2022-09-25T01:59:22.741Z,97154.98
2022-09-25T02:01:57.185Z,97161.92
2022-09-25T02:04:32.700Z,97170.57
2022-09-25T02:07:08.806Z,97168.82
2022-09-25T02:09:45.250Z,97168.76
2022-09-25T02:12:20.716Z,97173.08
2022-09-25T02:14:57.959Z,97170.48
2022-09-25T02:17:51.836Z,97173.95
2022-09-25T02:20:32.769Z,97170.48
2022-09-25T02:23:11.238Z,97185.23
2022-09-25T02:25:47.406Z,97176.77
2022-09-25T02:28:20.645Z,97180.36
2022-09-25T02:30:55.963Z,97183.77
2022-09-25T02:33:29.379Z,97182.84
2022-09-25T02:36:05.285Z,97179.45
2022-09-25T02:38:40.814Z,97178.55
2022-09-25T02:41:17.684Z,97180.24
2022-09-25T02:43:55.817Z,97178.55
2022-09-25T02:46:32.827Z,97178.52
2022-09-25T02:49:09.276Z,97181.91
2022-09-25T02:51:45.506Z,97184.41
2022-09-25T02:54:21.450Z,97190.46
2022-09-25T02:57:03.622Z,97186.14
2022-09-25T02:59:36.330Z,97193.09
2022-09-25T03:02:11.816Z,97190.61
2022-09-25T03:04:47.289Z,97200.12
2022-09-25T03:07:21.371Z,97195.84
2022-09-25T03:09:56.896Z,97202.81
2022-09-25T03:12:29.874Z,97202.81
2022-09-25T03:15:03.009Z,97200.16
2022-09-25T03:17:37.456Z,97212.27
2022-09-25T03:20:11.513Z,97207.11
2022-09-25T03:22:44.351Z,97208.02
2022-09-25T03:25:17.931Z,97215.92
2022-09-25T03:27:51.091Z,97208.15
2022-09-25T03:30:24.302Z,97208.18
2022-09-25T03:32:57.116Z,97216.77
2022-09-25T03:35:30.020Z,97220.21
2022-09-25T03:38:02.906Z,97219.39
2022-09-25T03:40:35.880Z,97229.02
2022-09-25T03:45:42.514Z,97235.01
2022-09-25T03:48:15.358Z,97234.02
2022-09-25T03:50:50.658Z,97234.81
2022-09-25T03:53:24.879Z,97237.36
2022-09-25T03:55:57.777Z,97240.75
2022-09-25T03:58:30.666Z,97236.48
2022-09-25T04:01:04.591Z,97247.70
2022-09-25T04:03:37.477Z,97245.07
2022-09-25T04:06:11.446Z,97248.45
2022-09-25T04:08:44.327Z,97245.77
2022-09-25T04:11:18.650Z,97256.15
2022-09-25T04:13:52.911Z,97255.27
2022-09-25T04:16:26.036Z,97257.05
2022-09-25T04:22:02.353Z,97254.36
2022-09-25T04:24:50.626Z,97263.40
2022-09-25T04:27:24.690Z,97263.40
2022-09-25T04:29:57.607Z,97271.25
2022-09-25T04:32:48.258Z,97279.10
2022-09-25T04:35:21.263Z,97273.93
2022-09-25T04:37:55.030Z,97279.44
2022-09-25T04:40:28.509Z,97285.69
2022-09-25T04:43:02.954Z,97285.84
2022-09-25T04:45:37.485Z,97294.59
2022-09-25T04:48:11.714Z,97302.35
2022-09-25T04:50:49.555Z,97302.31
2022-09-25T04:53:24.107Z,97305.78
2022-09-25T04:56:05.478Z,97310.18
2022-09-25T04:58:38.569Z,97313.71
2022-09-25T05:01:12.480Z,97315.44
2022-09-25T05:03:45.534Z,97324.05
2022-09-25T05:06:18.777Z,97319.59
2022-09-25T05:08:52.434Z,97322.10
2022-09-25T05:11:25.374Z,97327.31
2022-09-25T05:13:58.881Z,97329.89
2022-09-25T05:16:32.028Z,97332.43
2022-09-25T05:19:05.330Z,97327.13
2022-09-25T05:21:47.236Z,97342.69
2022-09-25T05:24:20.088Z,97343.52
2022-09-25T05:26:53.102Z,97341.77
2022-09-25T05:29:26.348Z,97346.08
2022-09-25T05:32:00.050Z,97347.77
2022-09-25T05:34:32.894Z,97356.39
2022-09-25T05:37:06.569Z,97355.52
2022-09-25T05:39:39.430Z,97350.38
2022-09-25T05:42:14.595Z,97357.27
2022-09-25T05:44:48.858Z,97358.06
2022-09-25T05:47:21.993Z,97366.72
2022-09-25T05:49:54.868Z,97367.54
2022-09-25T05:52:28.450Z,97373.56
2022-09-25T05:55:03.419Z,97373.45
2022-09-25T05:57:36.997Z,97382.09
2022-09-25T06:00:13.655Z,97381.98
2022-09-25T06:02:46.768Z,97375.81
2022-09-25T06:05:19.846Z,97384.66
2022-09-25T06:07:56.530Z,97379.53
2022-09-25T06:10:31.289Z,97380.36
2022-09-25T06:13:05.755Z,97384.72
2022-09-25T06:15:42.064Z,97386.41
2022-09-25T06:18:14.975Z,97388.08
2022-09-25T06:20:48.181Z,97392.38
2022-09-25T06:23:21.606Z,97396.77
2022-09-25T06:25:54.472Z,97394.14
2022-09-25T06:28:27.359Z,97398.45
2022-09-25T06:31:02.385Z,97401.53
2022-09-25T06:33:35.622Z,97406.41
2022-09-25T06:36:08.945Z,97395.70
2022-09-25T06:38:41.828Z,97403.33
2022-09-25T06:41:14.690Z,97415.26
2022-09-25T06:43:49.553Z,97411.72
2022-09-25T06:46:23.177Z,97416.86
2022-09-25T06:48:57.359Z,97422.70
2022-09-25T06:51:31.919Z,97413.84
2022-09-25T06:54:04.918Z,97426.30
2022-09-25T06:56:37.798Z,97429.91
2022-09-25T06:59:12.303Z,97436.91
2022-09-25T07:01:45.228Z,97436.05
2022-09-25T07:04:18.715Z,97442.93
2022-09-25T07:06:53.215Z,97441.96
2022-09-25T07:09:26.100Z,97445.34
2022-09-25T07:11:59.022Z,97447.92
2022-09-25T07:14:33.837Z,97447.08
2022-09-25T07:17:07.111Z,97449.77
2022-09-25T07:19:40.603Z,97446.13
2022-09-25T07:22:13.506Z,97450.30
2022-09-25T07:24:46.464Z,97449.23
2022-09-25T07:27:19.292Z,97456.14
2022-09-25T07:29:52.787Z,97459.35
2022-09-25T07:32:25.727Z,97449.67
2022-09-25T07:34:58.841Z,97469.67
2022-09-25T07:37:32.089Z,97470.55
2022-09-25T07:40:05.480Z,97471.64
2022-09-25T07:42:38.568Z,97483.91
2022-09-25T07:45:13.468Z,97490.92
2022-09-25T07:47:46.310Z,97491.54
2022-09-25T07:50:19.494Z,97490.29
2022-09-25T07:52:52.388Z,97491.98
2022-09-25T07:55:27.860Z,97490.36
2022-09-25T07:58:02.554Z,97506.98
2022-09-25T08:00:35.453Z,97515.19
2022-09-25T08:03:12.273Z,97516.16
2022-09-25T08:05:45.154Z,97516.22
2022-09-25T08:08:21.781Z,97518.60
2022-09-25T08:10:55.531Z,97524.53
2022-09-25T08:13:28.951Z,97526.17
2022-09-25T08:16:04.198Z,97525.32
2022-09-25T08:18:37.096Z,97530.56
2022-09-25T08:21:13.025Z,97534.39
2022-09-25T08:23:48.314Z,97538.11
2022-09-25T08:26:22.457Z,97546.97
2022-09-25T08:28:57.032Z,97551.13
2022-09-25T08:31:30.414Z,97556.11
2022-09-25T08:34:28.204Z,97561.14
2022-09-25T08:36:38.593Z,97562.81
2022-09-25T08:39:12.291Z,97565.54
2022-09-25T08:41:49.414Z,97569.78
2022-09-25T08:44:27.644Z,97564.41
2022-09-25T08:47:20.996Z,97575.59
2022-09-25T08:49:57.610Z,97571.66
2022-09-25T08:52:31.757Z,97582.17
2022-09-25T08:55:04.950Z,97582.61
2022-09-25T08:57:42.725Z,97589.36
2022-09-25T09:00:21.266Z,97594.31
2022-09-25T09:02:57.155Z,97588.92
2022-09-25T09:05:32.535Z,97594.27
2022-09-25T09:08:09.038Z,97600.69
2022-09-25T09:10:45.206Z,97602.61
2022-09-25T09:13:21.663Z,97605.44
2022-09-25T09:15:58.666Z,97606.53
2022-09-25T09:18:33.752Z,97612.64
2022-09-25T09:21:13.483Z,97616.98
2022-09-25T09:23:50.372Z,97622.97
2022-09-25T09:26:26.469Z,97624.67
2022-09-25T09:29:07.254Z,97623.89
2022-09-25T09:31:46.983Z,97631.08
2022-09-25T09:34:53.773Z,97629.45
2022-09-25T09:37:13.073Z,97626.33
2022-09-25T09:39:49.411Z,97626.64
2022-09-25T09:42:26.618Z,97632.83
2022-09-25T09:45:09.468Z,97631.13
2022-09-25T09:47:46.879Z,97637.22
2022-09-25T09:50:30.574Z,97638.95
2022-09-25T09:53:06.460Z,97643.16
2022-09-25T09:55:45.574Z,97640.46
2022-09-25T09:58:22.497Z,97642.03
2022-09-25T10:00:55.515Z,97641.94
2022-09-25T10:03:31.320Z,97641.16
2022-09-25T10:06:07.069Z,97649.95
2022-09-25T10:08:43.343Z,97644.83
2022-09-25T10:11:20.077Z,97644.89
2022-09-25T10:13:53.119Z,97652.92
2022-09-25T10:16:27.492Z,97660.98
2022-09-25T10:19:04.916Z,97663.65
2022-09-25T10:21:41.226Z,97666.31
2022-09-25T10:24:17.865Z,97674.16
2022-09-25T10:26:51.152Z,97674.16
2022-09-25T10:29:29.664Z,97684.58
2022-09-25T10:32:05.884Z,97686.27
2022-09-25T10:34:41.594Z,97683.53
2022-09-25T10:37:20.375Z,97679.20
2022-09-25T10:40:06.282Z,97686.14
2022-09-25T10:42:44.429Z,97693.93
2022-09-25T10:45:33.150Z,97693.03
2022-09-25T10:48:49.301Z,97699.06
2022-09-25T10:51:23.631Z,97702.55
2022-09-25T10:54:20.413Z,97703.45
2022-09-25T10:57:17.134Z,97701.65
2022-09-25T11:02:46.828Z,97693.98
2022-09-25T11:05:27.563Z,97697.38
2022-09-25T11:08:07.168Z,97693.53
2022-09-25T11:10:45.435Z,97701.03
2022-09-25T11:13:26.181Z,97701.34
2022-09-25T11:16:02.182Z,97693.64
2022-09-25T11:18:40.867Z,97694.28
2022-09-25T11:21:22.545Z,97694.72
2022-09-25T11:24:07.964Z,97694.83
2022-09-25T11:26:44.673Z,97702.50
2022-09-25T11:29:23.604Z,97705.46
2022-09-25T11:32:00.051Z,97701.06
2022-09-25T11:34:44.075Z,97709.06
2022-09-25T11:37:23.517Z,97698.48
2022-09-25T11:40:28.336Z,97718.15
2022-09-25T11:43:06.652Z,97719.34
2022-09-25T11:45:42.974Z,97725.04
2022-09-25T11:48:23.482Z,97726.48
2022-09-25T11:51:07.891Z,97719.95
2022-09-25T11:53:44.031Z,97725.45
2022-09-25T11:56:25.698Z,97730.11
2022-09-25T11:59:06.920Z,97729.55
2022-09-25T12:01:42.837Z,97731.51
2022-09-25T12:04:35.979Z,97737.17
2022-09-25T12:07:23.806Z,97736.50
2022-09-25T12:10:05.161Z,97738.44
2022-09-25T12:12:42.737Z,97743.69
2022-09-25T12:15:21.194Z,97746.20
2022-09-25T12:18:00.123Z,97738.33
2022-09-25T12:20:37.952Z,97746.85
2022-09-25T12:23:18.400Z,97744.13
2022-09-25T12:26:16.555Z,97743.15
2022-09-25T12:32:02.169Z,97746.13
2022-09-25T12:35:03.195Z,97749.06
2022-09-25T12:37:57.640Z,97750.63
2022-09-25T12:40:57.072Z,97764.16
2022-09-25T12:43:38.908Z,97761.77
2022-09-25T12:46:19.478Z,97762.50
2022-09-25T12:51:51.328Z,97765.85
2022-09-25T12:54:54.138Z,97773.17
2022-09-25T12:57:37.431Z,97770.63
2022-09-25T13:00:35.288Z,97764.59
2022-09-25T13:03:21.934Z,97770.56
2022-09-25T13:06:07.525Z,97769.49
2022-09-25T13:09:11.370Z,97778.69
2022-09-25T13:11:53.878Z,97775.60
2022-09-25T13:14:56.111Z,97771.55
2022-09-25T13:17:34.441Z,97775.11
2022-09-25T13:20:48.512Z,97776.81
2022-09-25T13:24:04.124Z,97779.45
2022-09-25T13:27:14.216Z,97777.83
2022-09-25T13:29:58.795Z,97781.39
2022-09-25T13:35:39.430Z,97781.36
2022-09-25T13:38:40.193Z,97785.22
2022-09-25T13:41:24.666Z,97786.30
2022-09-25T13:44:37.307Z,97787.39
2022-09-25T13:48:06.884Z,97785.96
2022-09-25T13:50:53.196Z,97786.95
2022-09-25T13:53:37.225Z,97789.56
2022-09-25T13:59:39.293Z,97799.88
2022-09-25T14:05:30.837Z,97802.88
2022-09-25T14:08:08.369Z,97799.67
2022-09-25T14:10:46.042Z,97812.75
2022-09-25T14:13:22.448Z,97812.73
2022-09-25T14:16:01.201Z,97805.81
2022-09-25T14:18:37.530Z,97807.54
2022-09-25T14:21:15.906Z,97809.22
2022-09-25T14:23:53.469Z,97814.41
2022-09-25T14:27:12.971Z,97820.48
2022-09-25T14:29:58.688Z,97823.06
2022-09-25T14:32:56.246Z,97825.69
2022-09-25T14:35:38.833Z,97815.29
2022-09-25T14:41:33.045Z,97824.64
2022-09-25T14:44:26.545Z,97837.02
2022-09-25T14:47:00.335Z,97832.78
2022-09-25T14:49:37.843Z,97834.67
2022-09-25T14:52:13.982Z,97848.64
2022-09-25T14:54:49.859Z,97840.84
2022-09-25T14:57:26.111Z,97839.97
2022-09-25T15:00:04.378Z,97837.37
2022-09-25T15:02:40.484Z,97839.06
2022-09-25T15:05:27.708Z,97844.27
2022-09-25T15:08:02.982Z,97846.88
2022-09-25T15:10:48.735Z,97852.08
2022-09-25T15:13:57.206Z,97854.80
2022-09-25T15:16:54.638Z,97866.13
2022-09-25T15:22:21.739Z,97864.33
2022-09-25T15:24:58.607Z,97868.80
2022-09-25T15:27:32.790Z,97867.91
2022-09-25T15:30:07.181Z,97869.64
2022-09-25T15:32:41.870Z,97871.36
2022-09-25T15:35:21.975Z,97868.80
2022-09-25T15:38:07.713Z,97864.48
2022-09-25T15:40:41.690Z,97864.52
2022-09-25T15:43:19.262Z,97868.02
2022-09-25T15:45:58.321Z,97869.80
2022-09-25T15:48:33.775Z,97878.53
2022-09-25T15:51:09.861Z,97889.81
2022-09-25T15:53:44.742Z,97887.23
2022-09-25T15:56:29.174Z,97885.49
2022-09-25T15:59:05.042Z,97891.53
2022-09-25T16:01:55.362Z,97895.00
2022-09-25T16:07:41.896Z,97889.70
2022-09-25T16:10:38.113Z,97899.34
2022-09-25T16:13:21.371Z,97898.43
2022-09-25T16:15:58.722Z,97889.83
2022-09-25T16:18:41.685Z,97886.36
2022-09-25T16:21:24.879Z,97888.14
2022-09-25T16:24:09.631Z,97884.72
2022-09-25T16:26:45.973Z,97861.45
2022-09-25T16:29:24.493Z,97883.95
2022-09-25T16:32:06.241Z,97884.84
2022-09-25T16:34:42.263Z,97889.20
2022-09-25T16:37:23.178Z,97890.92
2022-09-25T16:40:23.098Z,97884.02
2022-09-25T16:42:59.286Z,97892.69
2022-09-25T16:45:34.502Z,97891.78
2022-09-25T16:48:31.143Z,97893.48
2022-09-25T16:51:07.212Z,97900.39
2022-09-25T16:53:41.047Z,97895.16
2022-09-25T16:56:33.343Z,97898.59
2022-09-25T16:59:14.216Z,97901.12
2022-09-25T17:01:52.153Z,97908.05
2022-09-25T17:04:30.592Z,97902.85
2022-09-25T17:07:03.578Z,97895.87
2022-09-25T17:09:36.542Z,97901.93
2022-09-25T17:12:13.671Z,97898.43
2022-09-25T17:14:48.965Z,97900.16
2022-09-25T17:17:23.000Z,97900.16
2022-09-25T17:19:57.952Z,97899.30
2022-09-25T17:22:40.828Z,97904.50
2022-09-25T17:25:30.196Z,97901.90
2022-09-25T17:28:09.061Z,97903.66
2022-09-25T17:30:43.358Z,97907.96
2022-09-25T17:33:19.007Z,97912.32
2022-09-25T17:35:55.661Z,97910.59
2022-09-25T17:38:31.811Z,97908.85
2022-09-25T17:41:07.518Z,97900.19
2022-09-25T17:43:41.700Z,97903.63
2022-09-25T17:46:16.425Z,97902.73
2022-09-25T17:48:54.116Z,97908.80
2022-09-25T17:51:31.008Z,97908.80
2022-09-25T17:54:05.694Z,97910.58
2022-09-25T17:56:42.310Z,97911.47
2022-09-25T17:59:16.721Z,97907.11
2022-09-25T18:01:49.889Z,97916.62
2022-09-25T18:04:24.786Z,97918.33
2022-09-25T18:07:00.215Z,97915.70
2022-09-25T18:09:33.408Z,97913.11
2022-09-25T18:12:06.576Z,97920.95
2022-09-25T18:14:39.431Z,97913.14
2022-09-25T18:17:12.838Z,97918.35
2022-09-25T18:20:03.615Z,97916.59
2022-09-25T18:22:38.331Z,97914.84
2022-09-25T18:25:11.515Z,97924.44
2022-09-25T18:27:45.585Z,97920.11
2022-09-25T18:30:22.286Z,97918.33
2022-09-25T18:32:55.206Z,97920.05
2022-09-25T18:35:28.155Z,97912.22
2022-09-25T18:38:01.499Z,97923.45
2022-09-25T18:40:34.454Z,97926.08
2022-09-25T18:43:07.370Z,97917.43
2022-09-25T18:45:42.093Z,97913.98
2022-09-25T18:48:15.049Z,97917.44
2022-09-25T18:50:49.766Z,97909.62
2022-09-25T18:53:22.703Z,97914.84
2022-09-25T18:55:58.284Z,97913.10
2022-09-25T18:58:32.146Z,97920.91
2022-09-25T19:01:11.191Z,97921.82
2022-09-25T19:03:44.229Z,97915.75
2022-09-25T19:06:17.356Z,97919.22
2022-09-25T19:08:55.942Z,97926.17
2022-09-25T19:11:29.770Z,97924.42
2022-09-25T19:14:04.935Z,97926.13
2022-09-25T19:16:38.697Z,97926.98
2022-09-25T19:19:12.322Z,97933.05
2022-09-25T19:21:45.267Z,97933.06
2022-09-25T19:24:19.163Z,97927.85
2022-09-25T19:26:52.037Z,97930.44
2022-09-25T19:29:27.759Z,97926.95
2022-09-25T19:32:00.724Z,97928.74
2022-09-25T19:34:34.001Z,97929.63
2022-09-25T19:37:11.843Z,97931.42
2022-09-25T19:40:02.486Z,97934.89
2022-09-25T19:42:37.049Z,97941.88
2022-09-25T19:45:12.292Z,97940.19
2022-09-25T19:47:45.345Z,97943.70
2022-09-25T19:50:19.041Z,97944.52
2022-09-25T19:52:52.113Z,97941.92
2022-09-25T19:55:25.256Z,97947.94
2022-09-25T19:57:58.305Z,97943.61
2022-09-25T20:00:31.392Z,97943.61
2022-09-25T20:03:04.382Z,97947.09
2022-09-25T20:05:41.375Z,97943.62
2022-09-25T20:08:15.555Z,97941.88
2022-09-25T20:10:48.757Z,97941.02
2022-09-25T20:13:21.782Z,97940.15
2022-09-25T20:15:55.216Z,97943.63
2022-09-25T20:18:28.201Z,97945.39
2022-09-25T20:21:05.810Z,97945.41
2022-09-25T20:23:38.759Z,97948.00
2022-09-25T20:26:15.874Z,97944.55
2022-09-25T20:28:50.470Z,97956.70
2022-09-25T20:31:23.493Z,97963.67
2022-09-25T20:33:58.238Z,97953.27
2022-09-25T20:36:31.290Z,97952.42
2022-09-25T20:39:04.671Z,97952.46
2022-09-25T20:41:38.166Z,97949.02
2022-09-25T20:44:11.596Z,97949.02
2022-09-25T20:48:51.883Z,97943.81
2022-09-25T20:50:45.811Z,97955.95
2022-09-25T20:53:18.295Z,97955.09
2022-09-25T20:55:51.468Z,97955.97
2022-09-25T20:58:24.358Z,97956.84
2022-09-25T21:01:02.655Z,97955.08
2022-09-25T21:03:37.002Z,97956.81
2022-09-25T21:06:13.482Z,97964.59
2022-09-25T21:08:46.558Z,97963.74
2022-09-25T21:11:19.456Z,97959.37
2022-09-25T21:13:53.907Z,97955.89
2022-09-25T21:16:29.252Z,97955.89
2022-09-25T21:19:05.368Z,97956.78
2022-09-25T21:21:38.756Z,97950.72
2022-09-25T21:24:15.646Z,97949.88
2022-09-25T21:26:49.822Z,97955.94
2022-09-25T21:29:23.405Z,97957.67
2022-09-25T21:31:57.109Z,97963.75
2022-09-25T21:34:30.360Z,97959.42
2022-09-25T21:37:03.237Z,97972.39
2022-09-25T21:39:36.162Z,97966.31
2022-09-25T21:42:09.059Z,97972.39
2022-09-25T21:44:42.007Z,97973.22
2022-09-25T21:47:15.495Z,97973.23
2022-09-25T21:49:49.011Z,97978.46
2022-09-25T21:52:22.150Z,97978.48
2022-09-25T21:54:55.244Z,97979.34
2022-09-25T21:57:28.075Z,97968.08
2022-09-25T22:00:02.020Z,97969.80
2022-09-25T22:02:36.644Z,97981.97
2022-09-25T22:05:11.520Z,97974.16
2022-09-25T22:07:44.533Z,97977.65
2022-09-25T22:10:18.621Z,97976.80
2022-09-25T22:12:53.727Z,97978.53
2022-09-25T22:15:27.354Z,97983.70
2022-09-25T22:18:00.371Z,97977.63
2022-09-25T22:20:33.277Z,97987.18
2022-09-25T22:23:06.239Z,97985.44
2022-09-25T22:25:42.102Z,97986.31
2022-09-25T22:28:14.958Z,97991.53
2022-09-25T22:30:48.320Z,97985.46
2022-09-25T22:33:21.334Z,97989.81
2022-09-25T22:36:01.839Z,97990.69
2022-09-25T22:38:35.235Z,97988.95
2022-09-25T22:41:10.702Z,97990.69
2022-09-25T22:43:44.286Z,97992.45
2022-09-25T22:46:17.643Z,97990.69
2022-09-25T22:48:50.579Z,97989.80
2022-09-25T22:51:24.908Z,97991.52
2022-09-25T22:53:59.161Z,97999.33
2022-09-25T22:56:33.515Z,97995.83
2022-09-25T22:59:08.681Z,97998.42
2022-09-25T23:01:44.422Z,98002.78
2022-09-25T23:04:19.851Z,98002.75
2022-09-25T23:06:53.382Z,98007.98
2022-09-25T23:09:27.108Z,98011.45
2022-09-25T23:11:59.981Z,98007.96
2022-09-25T23:14:34.176Z,98001.05
2022-09-25T23:17:07.231Z,98015.84
2022-09-25T23:19:40.351Z,98009.86
2022-09-25T23:22:13.215Z,98009.84
2022-09-25T23:24:46.110Z,98015.09
2022-09-25T23:27:18.984Z,98019.46
2022-09-25T23:29:51.815Z,98012.55
2022-09-25T23:32:24.735Z,98018.59
2022-09-25T23:34:57.566Z,98012.55
2022-09-25T23:37:31.463Z,98016.88
2022-09-25T23:40:04.983Z,98024.67
2022-09-25T23:42:37.842Z,98022.06
2022-09-25T23:45:13.286Z,98030.70
2022-09-25T23:47:49.173Z,98027.24
2022-09-25T23:50:22.128Z,98025.48
2022-09-25T23:52:55.013Z,98025.51
2022-09-25T23:55:27.930Z,98022.91
2022-09-25T23:58:02.408Z,98024.66
